sensor_id;sensor_type;location;lat;lon;timestamp;pressure;altitude;pressure_sealevel;temperature;humidity
51297;BME280;37380;45.186;9.792;2023-03-03T00:01:09;101214.66;;;5.19;100.00
51297;BME280;37380;45.186;9.792;2023-03-03T00:04:03;101209.56;;;5.34;100.00
51297;BME280;37380;45.186;9.792;2023-03-03T00:06:30;101190.72;;;5.50;100.00
51297;BME280;37380;45.186;9.792;2023-03-03T00:08:57;101056.59;;;4.63;100.00
51297;BME280;37380;45.186;9.792;2023-03-03T00:11:24;101218.94;;;5.45;100.00
51297;BME280;37380;45.186;9.792;2023-03-03T00:13:58;101060.19;;;4.52;100.00
51297;BME280;37380;45.186;9.792;2023-03-03T00:16:53;101153.13;;;5.02;100.00
51297;BME280;37380;45.186;9.792;2023-03-03T00:19:21;101173.66;;;4.99;100.00
51297;BME280;37380;45.186;9.792;2023-03-03T00:21:56;101208.03;;;4.83;100.00
51297;BME280;37380;45.186;9.792;2023-03-03T00:24:50;101196.84;;;4.84;100.00
51297;BME280;37380;45.186;9.792;2023-03-03T00:27:29;101194.72;;;4.65;100.00
51297;BME280;37380;45.186;9.792;2023-03-03T00:29:58;101220.72;;;4.67;100.00
51297;BME280;37380;45.186;9.792;2023-03-03T00:35:22;101211.28;;;4.54;100.00
51297;BME280;37380;45.186;9.792;2023-03-03T00:37:54;101207.06;;;4.56;100.00
51297;BME280;37380;45.186;9.792;2023-03-03T00:40:36;101143.72;;;4.11;100.00
51297;BME280;37380;45.186;9.792;2023-03-03T00:43:35;101144.88;;;4.03;100.00
51297;BME280;37380;45.186;9.792;2023-03-03T00:46:02;101055.75;;;3.46;100.00
51297;BME280;37380;45.186;9.792;2023-03-03T00:48:41;101207.69;;;4.27;100.00
51297;BME280;37380;45.186;9.792;2023-03-03T00:51:29;101153.72;;;3.93;100.00
51297;BME280;37380;45.186;9.792;2023-03-03T00:53:57;101133.97;;;3.82;100.00
51297;BME280;37380;45.186;9.792;2023-03-03T00:56:25;101199.03;;;4.13;100.00
51297;BME280;37380;45.186;9.792;2023-03-03T00:58:59;101158.19;;;3.96;100.00
51297;BME280;37380;45.186;9.792;2023-03-03T01:01:55;101190.41;;;4.01;100.00
51297;BME280;37380;45.186;9.792;2023-03-03T01:04:23;101096.41;;;3.37;100.00
51297;BME280;37380;45.186;9.792;2023-03-03T01:06:49;101187.47;;;3.83;100.00
51297;BME280;37380;45.186;9.792;2023-03-03T01:09:17;101188.28;;;3.95;100.00
51297;BME280;37380;45.186;9.792;2023-03-03T01:11:44;101191.94;;;3.85;100.00
51297;BME280;37380;45.186;9.792;2023-03-03T01:14:17;101151.13;;;3.68;100.00
51297;BME280;37380;45.186;9.792;2023-03-03T01:17:18;101160.19;;;3.75;100.00
51297;BME280;37380;45.186;9.792;2023-03-03T01:20:19;101157.53;;;3.86;100.00
51297;BME280;37380;45.186;9.792;2023-03-03T01:23:20;101155.41;;;3.93;100.00
51297;BME280;37380;45.186;9.792;2023-03-03T01:25:50;101181.59;;;4.11;100.00
51297;BME280;37380;45.186;9.792;2023-03-03T01:28:17;101014.03;;;3.03;100.00
51297;BME280;37380;45.186;9.792;2023-03-03T01:30:44;101148.44;;;3.55;100.00
51297;BME280;37380;45.186;9.792;2023-03-03T01:33:11;101152.97;;;3.46;100.00
51297;BME280;37380;45.186;9.792;2023-03-03T01:35:43;101066.94;;;2.73;100.00
51297;BME280;37380;45.186;9.792;2023-03-03T01:38:10;101183.56;;;3.39;100.00
51297;BME280;37380;45.186;9.792;2023-03-03T01:40:37;101034.44;;;2.63;100.00
51297;BME280;37380;45.186;9.792;2023-03-03T01:43:14;101177.97;;;3.70;100.00
51297;BME280;37380;45.186;9.792;2023-03-03T01:46:21;101153.19;;;3.49;100.00
51297;BME280;37380;45.186;9.792;2023-03-03T01:49:19;101173.66;;;3.46;100.00
51297;BME280;37380;45.186;9.792;2023-03-03T01:52:00;101148.44;;;3.55;100.00
51297;BME280;37380;45.186;9.792;2023-03-03T01:54:44;101053.72;;;2.80;100.00
51297;BME280;37380;45.186;9.792;2023-03-03T01:57:29;101161.66;;;3.46;100.00
51297;BME280;37380;45.186;9.792;2023-03-03T02:00:25;101099.78;;;2.87;100.00
51297;BME280;37380;45.186;9.792;2023-03-03T02:02:54;101075.69;;;2.75;100.00
51297;BME280;37380;45.186;9.792;2023-03-03T02:05:21;101150.28;;;3.07;100.00
51297;BME280;37380;45.186;9.792;2023-03-03T02:07:50;101169.78;;;3.27;100.00
51297;BME280;37380;45.186;9.792;2023-03-03T02:10:18;101156.22;;;3.18;100.00
51297;BME280;37380;45.186;9.792;2023-03-03T02:12:55;101100.13;;;3.04;100.00
51297;BME280;37380;45.186;9.792;2023-03-03T02:15:32;101147.09;;;3.35;100.00
51297;BME280;37380;45.186;9.792;2023-03-03T02:18:27;100966.56;;;2.16;100.00
51297;BME280;37380;45.186;9.792;2023-03-03T02:21:21;101018.34;;;2.31;100.00
51297;BME280;37380;45.186;9.792;2023-03-03T02:24:27;101105.53;;;2.95;100.00
51297;BME280;37380;45.186;9.792;2023-03-03T02:27:27;101122.16;;;2.75;100.00
51297;BME280;37380;45.186;9.792;2023-03-03T02:30:07;101133.78;;;2.93;100.00
51297;BME280;37380;45.186;9.792;2023-03-03T02:32:35;101031.25;;;2.31;100.00
51297;BME280;37380;45.186;9.792;2023-03-03T02:35:30;101124.38;;;3.06;100.00
51297;BME280;37380;45.186;9.792;2023-03-03T02:38:42;101125.94;;;3.04;100.00
51297;BME280;37380;45.186;9.792;2023-03-03T02:44:28;101097.47;;;2.67;100.00
51297;BME280;37380;45.186;9.792;2023-03-03T02:47:22;101099.53;;;2.47;100.00
51297;BME280;37380;45.186;9.792;2023-03-03T02:49:49;101112.72;;;2.52;100.00
51297;BME280;37380;45.186;9.792;2023-03-03T02:52:16;101100.50;;;2.49;100.00
51297;BME280;37380;45.186;9.792;2023-03-03T02:54:45;101090.09;;;2.48;100.00
51297;BME280;37380;45.186;9.792;2023-03-03T02:57:19;101085.38;;;2.42;100.00
51297;BME280;37380;45.186;9.792;2023-03-03T03:00:14;101018.44;;;2.09;100.00
51297;BME280;37380;45.186;9.792;2023-03-03T03:02:41;100932.06;;;1.43;100.00
51297;BME280;37380;45.186;9.792;2023-03-03T03:05:08;101114.78;;;2.56;100.00
51297;BME280;37380;45.186;9.792;2023-03-03T03:07:36;101098.38;;;2.56;100.00
51297;BME280;37380;45.186;9.792;2023-03-03T03:10:04;100940.34;;;1.74;100.00
51297;BME280;37380;45.186;9.792;2023-03-03T03:12:35;101100.03;;;2.67;100.00
51297;BME280;37380;45.186;9.792;2023-03-03T03:15:08;101114.50;;;2.88;100.00
51297;BME280;37380;45.186;9.792;2023-03-03T03:18:03;101094.78;;;2.77;100.00
51297;BME280;37380;45.186;9.792;2023-03-03T03:20:37;101020.09;;;2.55;100.00
51297;BME280;37380;45.186;9.792;2023-03-03T03:23:33;101114.53;;;3.25;100.00
51297;BME280;37380;45.186;9.792;2023-03-03T03:26:00;101109.78;;;2.94;100.00
51297;BME280;37380;45.186;9.792;2023-03-03T03:28:28;101102.53;;;2.77;100.00
51297;BME280;37380;45.186;9.792;2023-03-03T03:30:55;101099.50;;;2.71;100.00
51297;BME280;37380;45.186;9.792;2023-03-03T03:33:23;101070.56;;;2.52;100.00
51297;BME280;37380;45.186;9.792;2023-03-03T03:35:51;101114.88;;;2.58;100.00
51297;BME280;37380;45.186;9.792;2023-03-03T03:38:18;101042.88;;;2.14;100.00
51297;BME280;37380;45.186;9.792;2023-03-03T03:40:46;100949.00;;;1.75;100.00
51297;BME280;37380;45.186;9.792;2023-03-03T03:43:13;101091.78;;;2.36;100.00
51297;BME280;37380;45.186;9.792;2023-03-03T03:45:42;101098.38;;;2.32;100.00
51297;BME280;37380;45.186;9.792;2023-03-03T03:48:16;101085.25;;;2.29;100.00
51297;BME280;37380;45.186;9.792;2023-03-03T03:51:17;101070.81;;;2.19;100.00
51297;BME280;37380;45.186;9.792;2023-03-03T03:54:11;100925.22;;;1.44;100.00
51297;BME280;37380;45.186;9.792;2023-03-03T03:56:45;101046.47;;;2.16;100.00
51297;BME280;37380;45.186;9.792;2023-03-03T03:59:40;101092.09;;;2.52;100.00
51297;BME280;37380;45.186;9.792;2023-03-03T04:02:07;101103.66;;;2.69;100.00
51297;BME280;37380;45.186;9.792;2023-03-03T04:04:34;101034.72;;;2.19;100.00
51297;BME280;37380;45.186;9.792;2023-03-03T04:07:03;101024.16;;;1.93;100.00
51297;BME280;37380;45.186;9.792;2023-03-03T04:09:30;101050.03;;;2.18;100.00
51297;BME280;37380;45.186;9.792;2023-03-03T04:11:58;101057.78;;;2.30;100.00
51297;BME280;37380;45.186;9.792;2023-03-03T04:14:32;101056.88;;;2.41;100.00
51297;BME280;37380;45.186;9.792;2023-03-03T04:17:26;101084.94;;;2.36;100.00
51297;BME280;37380;45.186;9.792;2023-03-03T04:19:53;101075.28;;;2.22;100.00
51297;BME280;37380;45.186;9.792;2023-03-03T04:22:28;101098.38;;;2.32;100.00
51297;BME280;37380;45.186;9.792;2023-03-03T04:25:28;101029.44;;;2.06;100.00
51297;BME280;37380;45.186;9.792;2023-03-03T04:28:22;100997.16;;;1.99;100.00
51297;BME280;37380;45.186;9.792;2023-03-03T04:30:52;101034.59;;;2.18;100.00
51297;BME280;37380;45.186;9.792;2023-03-03T04:33:20;101066.31;;;2.40;100.00
51297;BME280;37380;45.186;9.792;2023-03-03T04:35:48;100954.03;;;1.85;100.00
51297;BME280;37380;45.186;9.792;2023-03-03T04:38:16;100994.13;;;2.05;100.00
51297;BME280;37380;45.186;9.792;2023-03-03T04:40:51;101059.13;;;2.60;100.00
51297;BME280;37380;45.186;9.792;2023-03-03T04:43:41;101030.88;;;2.26;100.00
51297;BME280;37380;45.186;9.792;2023-03-03T04:46:11;101036.03;;;2.49;100.00
51297;BME280;37380;45.186;9.792;2023-03-03T04:48:38;101085.78;;;2.84;100.00
51297;BME280;37380;45.186;9.792;2023-03-03T04:51:05;101092.72;;;2.85;100.00
51297;BME280;37380;45.186;9.792;2023-03-03T04:53:34;101020.78;;;2.41;100.00
51297;BME280;37380;45.186;9.792;2023-03-03T04:56:11;101053.97;;;2.60;100.00
51297;BME280;37380;45.186;9.792;2023-03-03T04:59:12;101028.88;;;2.10;100.00
51297;BME280;37380;45.186;9.792;2023-03-03T05:02:13;101069.25;;;2.33;100.00
51297;BME280;37380;45.186;9.792;2023-03-03T05:05:08;100934.63;;;1.43;100.00
51297;BME280;37380;45.186;9.792;2023-03-03T05:07:36;101063.06;;;2.08;100.00
51297;BME280;37380;45.186;9.792;2023-03-03T05:10:03;100947.28;;;1.40;100.00
51297;BME280;37380;45.186;9.792;2023-03-03T05:12:30;101056.00;;;2.17;100.00
51297;BME280;37380;45.186;9.792;2023-03-03T05:15:04;101043.31;;;1.96;100.00
51297;BME280;37380;45.186;9.792;2023-03-03T05:17:58;100952.66;;;1.43;100.00
51297;BME280;37380;45.186;9.792;2023-03-03T05:20:32;101088.50;;;2.26;100.00
51297;BME280;37380;45.186;9.792;2023-03-03T05:23:26;101039.41;;;1.90;100.00
51297;BME280;37380;45.186;9.792;2023-03-03T05:25:53;101037.25;;;1.84;100.00
51297;BME280;37380;45.186;9.792;2023-03-03T05:28:20;101050.16;;;2.08;100.00
51297;BME280;37380;45.186;9.792;2023-03-03T05:30:47;101065.72;;;2.09;100.00
51297;BME280;37380;45.186;9.792;2023-03-03T05:33:16;101062.47;;;2.00;100.00
51297;BME280;37380;45.186;9.792;2023-03-03T05:35:43;100974.56;;;1.38;100.00
51297;BME280;37380;45.186;9.792;2023-03-03T05:38:10;101013.38;;;1.63;100.00
51297;BME280;37380;45.186;9.792;2023-03-03T05:40:37;100974.81;;;1.41;100.00
51297;BME280;37380;45.186;9.792;2023-03-03T05:43:04;101026.59;;;1.68;100.00
51297;BME280;37380;45.186;9.792;2023-03-03T05:45:31;101003.28;;;1.54;100.00
51297;BME280;37380;45.186;9.792;2023-03-03T05:47:58;101029.28;;;1.69;100.00
51297;BME280;37380;45.186;9.792;2023-03-03T05:50:25;101068.16;;;1.72;100.00
51297;BME280;37380;45.186;9.792;2023-03-03T05:52:52;101009.34;;;1.33;100.00
51297;BME280;37380;45.186;9.792;2023-03-03T05:55:19;101042.03;;;1.68;100.00
51297;BME280;37380;45.186;9.792;2023-03-03T05:57:53;101074.81;;;1.92;100.00
51297;BME280;37380;45.186;9.792;2023-03-03T06:00:47;100927.09;;;1.23;100.00
51297;BME280;37380;45.186;9.792;2023-03-03T06:03:14;101064.53;;;2.04;100.00
51297;BME280;37380;45.186;9.792;2023-03-03T06:05:42;101044.75;;;1.81;100.00
51297;BME280;37380;45.186;9.792;2023-03-03T06:08:09;100938.59;;;1.28;100.00
51297;BME280;37380;45.186;9.792;2023-03-03T06:10:36;101025.94;;;1.82;100.00
51297;BME280;37380;45.186;9.792;2023-03-03T06:13:19;101032.34;;;1.99;100.00
51297;BME280;37380;45.186;9.792;2023-03-03T06:16:20;101043.69;;;2.01;100.00
51297;BME280;37380;45.186;9.792;2023-03-03T06:19:15;101093.44;;;2.47;100.00
51297;BME280;37380;45.186;9.792;2023-03-03T06:21:49;101095.47;;;2.63;100.00
51297;BME280;37380;45.186;9.792;2023-03-03T06:24:43;101096.22;;;2.85;100.00
51297;BME280;37380;45.186;9.792;2023-03-03T06:27:11;101020.91;;;2.54;100.00
51297;BME280;37380;45.186;9.792;2023-03-03T06:29:38;101060.22;;;2.75;100.00
51297;BME280;37380;45.186;9.792;2023-03-03T06:32:05;101098.22;;;3.38;100.00
51297;BME280;37380;45.186;9.792;2023-03-03T06:34:32;101064.78;;;3.03;100.00
51297;BME280;37380;45.186;9.792;2023-03-03T06:36:59;101025.25;;;3.04;100.00
51297;BME280;37380;45.186;9.792;2023-03-03T06:39:26;101102.00;;;3.68;100.00
51297;BME280;37380;45.186;9.792;2023-03-03T06:41:54;100937.88;;;2.85;100.00
51297;BME280;37380;45.186;9.792;2023-03-03T06:44:21;101010.06;;;3.33;100.00
51297;BME280;37380;45.186;9.792;2023-03-03T06:46:48;101099.34;;;4.18;100.00
51297;BME280;37380;45.186;9.792;2023-03-03T06:49:15;101118.97;;;4.41;100.00
51297;BME280;37380;45.186;9.792;2023-03-03T06:51:56;100889.13;;;3.01;100.00
51297;BME280;37380;45.186;9.792;2023-03-03T06:55:01;101122.78;;;4.60;100.00
51297;BME280;37380;45.186;9.792;2023-03-03T06:58:17;100912.16;;;3.90;100.00
51297;BME280;37380;45.186;9.792;2023-03-03T07:00:49;101069.31;;;4.73;100.00
51297;BME280;37380;45.186;9.792;2023-03-03T07:03:24;101064.22;;;5.30;100.00
51297;BME280;37380;45.186;9.792;2023-03-03T07:05:52;100957.72;;;4.14;100.00
51297;BME280;37380;45.186;9.792;2023-03-03T07:08:22;101080.59;;;5.15;100.00
51297;BME280;37380;45.186;9.792;2023-03-03T07:11:00;101103.78;;;5.70;100.00
51297;BME280;37380;45.186;9.792;2023-03-03T07:14:01;101123.56;;;5.68;100.00
51297;BME280;37380;45.186;9.792;2023-03-03T07:17:03;101114.53;;;5.61;100.00
51297;BME280;37380;45.186;9.792;2023-03-03T07:19:34;101008.50;;;5.23;100.00
51297;BME280;37380;45.186;9.792;2023-03-03T07:22:15;101137.81;;;6.18;100.00
51297;BME280;37380;45.186;9.792;2023-03-03T07:25:25;101021.44;;;5.51;100.00
51297;BME280;37380;45.186;9.792;2023-03-03T07:30:42;101127.06;;;6.56;100.00
51297;BME280;37380;45.186;9.792;2023-03-03T07:33:26;101148.19;;;6.47;100.00
51297;BME280;37380;45.186;9.792;2023-03-03T07:35:56;101098.78;;;5.30;100.00
51297;BME280;37380;45.186;9.792;2023-03-03T07:41:02;101135.03;;;5.86;100.00
51297;BME280;37380;45.186;9.792;2023-03-03T07:43:40;101108.56;;;5.77;100.00
51297;BME280;37380;45.186;9.792;2023-03-03T07:48:37;101148.16;;;6.03;100.00
51297;BME280;37380;45.186;9.792;2023-03-03T07:51:19;101153.38;;;5.89;100.00
51297;BME280;37380;45.186;9.792;2023-03-03T07:57:25;101083.94;;;6.13;100.00
51297;BME280;37380;45.186;9.792;2023-03-03T07:59:59;101155.34;;;6.66;100.00
51297;BME280;37380;45.186;9.792;2023-03-03T08:02:59;101163.66;;;7.07;100.00
51297;BME280;37380;45.186;9.792;2023-03-03T08:11:05;101100.31;;;6.27;100.00
51297;BME280;37380;45.186;9.792;2023-03-03T08:14:10;101133.59;;;6.49;100.00
51297;BME280;37380;45.186;9.792;2023-03-03T08:17:19;101131.56;;;6.29;100.00
51297;BME280;37380;45.186;9.792;2023-03-03T08:19:54;101171.47;;;7.38;100.00
51297;BME280;37380;45.186;9.792;2023-03-03T08:22:55;101155.31;;;7.43;100.00
51297;BME280;37380;45.186;9.792;2023-03-03T08:25:50;101167.81;;;7.34;100.00
51297;BME280;37380;45.186;9.792;2023-03-03T08:28:18;101053.31;;;6.52;100.00
51297;BME280;37380;45.186;9.792;2023-03-03T08:30:52;101149.34;;;7.77;100.00
51297;BME280;37380;45.186;9.792;2023-03-03T08:33:59;101150.44;;;7.49;100.00
51297;BME280;37380;45.186;9.792;2023-03-03T08:36:25;101161.53;;;8.29;100.00
51297;BME280;37380;45.186;9.792;2023-03-03T08:38:52;101048.69;;;8.10;100.00
51297;BME280;37380;45.186;9.792;2023-03-03T08:41:19;101166.03;;;8.48;100.00
51297;BME280;37380;45.186;9.792;2023-03-03T08:43:53;101174.81;;;8.50;100.00
51297;BME280;37380;45.186;9.792;2023-03-03T08:46:47;101137.75;;;9.09;100.00
51297;BME280;37380;45.186;9.792;2023-03-03T08:49:14;101130.44;;;9.57;100.00
51297;BME280;37380;45.186;9.792;2023-03-03T08:51:48;101148.13;;;10.03;100.00
51297;BME280;37380;45.186;9.792;2023-03-03T08:54:49;101131.72;;;9.67;100.00
51297;BME280;37380;45.186;9.792;2023-03-03T08:57:44;101137.69;;;7.87;100.00
51297;BME280;37380;45.186;9.792;2023-03-03T09:00:14;101179.69;;;7.62;100.00
51297;BME280;37380;45.186;9.792;2023-03-03T09:02:41;101105.00;;;7.26;100.00
51297;BME280;37380;45.186;9.792;2023-03-03T09:05:09;101044.00;;;7.69;100.00
51297;BME280;37380;45.186;9.792;2023-03-03T09:07:36;101181.22;;;8.74;100.00
51297;BME280;37380;45.186;9.792;2023-03-03T09:10:04;101166.00;;;9.00;100.00
51297;BME280;37380;45.186;9.792;2023-03-03T09:12:40;101195.06;;;9.45;100.00
51297;BME280;37380;45.186;9.792;2023-03-03T09:15:29;101179.41;;;10.02;100.00
51297;BME280;37380;45.186;9.792;2023-03-03T09:18:21;101183.91;;;10.45;100.00
51297;BME280;37380;45.186;9.792;2023-03-03T09:21:25;101188.22;;;10.44;100.00
51297;BME280;37380;45.186;9.792;2023-03-03T09:24:30;101160.75;;;9.94;100.00
51297;BME280;37380;45.186;9.792;2023-03-03T09:27:30;101169.41;;;9.73;100.00
51297;BME280;37380;45.186;9.792;2023-03-03T09:30:36;101184.44;;;9.60;100.00
51297;BME280;37380;45.186;9.792;2023-03-03T09:33:44;101182.72;;;8.69;100.00
51297;BME280;37380;45.186;9.792;2023-03-03T09:36:43;101179.94;;;8.66;100.00
51297;BME280;37380;45.186;9.792;2023-03-03T09:39:19;101187.13;;;9.06;100.00
51297;BME280;37380;45.186;9.792;2023-03-03T09:42:28;101183.00;;;8.75;100.00
51297;BME280;37380;45.186;9.792;2023-03-03T09:53:24;101191.66;;;10.24;100.00
51297;BME280;37380;45.186;9.792;2023-03-03T09:56:36;101198.34;;;10.77;100.00
51297;BME280;37380;45.186;9.792;2023-03-03T10:02:24;101184.75;;;9.85;100.00
51297;BME280;37380;45.186;9.792;2023-03-03T10:04:56;101181.81;;;9.78;100.00
51297;BME280;37380;45.186;9.792;2023-03-03T10:07:40;101143.66;;;9.62;100.00
51297;BME280;37380;45.186;9.792;2023-03-03T10:10:28;101179.34;;;9.81;100.00
51297;BME280;37380;45.186;9.792;2023-03-03T10:24:19;101181.56;;;10.51;100.00
51297;BME280;37380;45.186;9.792;2023-03-03T10:33:41;101157.25;;;11.63;100.00
51297;BME280;37380;45.186;9.792;2023-03-03T10:36:52;101178.75;;;12.76;100.00
51297;BME280;37380;45.186;9.792;2023-03-03T10:39:39;101170.38;;;13.14;100.00
51297;BME280;37380;45.186;9.792;2023-03-03T10:42:43;101166.75;;;13.09;100.00
51297;BME280;37380;45.186;9.792;2023-03-03T10:57:42;101152.38;;;12.71;100.00
51297;BME280;37380;45.186;9.792;2023-03-03T11:12:52;101191.25;;;14.26;100.00
51297;BME280;37380;45.186;9.792;2023-03-03T11:18:34;101174.09;;;14.40;100.00
51297;BME280;37380;45.186;9.792;2023-03-03T11:21:46;101187.03;;;14.66;100.00
51297;BME280;37380;45.186;9.792;2023-03-03T11:36:18;101150.91;;;14.93;100.00
51297;BME280;37380;45.186;9.792;2023-03-03T11:46:40;101100.66;;;14.83;98.59
51297;BME280;37380;45.186;9.792;2023-03-03T11:49:19;101080.22;;;14.69;100.00
51297;BME280;37380;45.186;9.792;2023-03-03T11:55:35;101054.38;;;14.53;100.00
51297;BME280;37380;45.186;9.792;2023-03-03T11:58:53;101140.94;;;15.16;100.00
51297;BME280;37380;45.186;9.792;2023-03-03T12:04:51;101122.31;;;15.07;100.00
51297;BME280;37380;45.186;9.792;2023-03-03T12:07:47;101100.59;;;14.80;100.00
51297;BME280;37380;45.186;9.792;2023-03-03T12:15:47;101112.22;;;14.53;100.00
51297;BME280;37380;45.186;9.792;2023-03-03T12:25:08;101062.41;;;14.58;100.00
51297;BME280;37380;45.186;9.792;2023-03-03T12:28:17;101080.56;;;14.50;100.00
51297;BME280;37380;45.186;9.792;2023-03-03T12:31:32;101094.69;;;14.52;94.13
51297;BME280;37380;45.186;9.792;2023-03-03T12:39:48;101073.91;;;13.63;97.72
51297;BME280;37380;45.186;9.792;2023-03-03T12:45:43;101090.16;;;13.81;93.15
51297;BME280;37380;45.186;9.792;2023-03-03T12:47:53;101036.47;;;12.81;94.71
51297;BME280;37380;45.186;9.792;2023-03-03T13:00:25;101079.06;;;12.47;92.10
51297;BME280;37380;45.186;9.792;2023-03-03T13:13:53;101077.75;;;12.60;94.87
51297;BME280;37380;45.186;9.792;2023-03-03T13:16:30;101081.16;;;12.84;95.42
51297;BME280;37380;45.186;9.792;2023-03-03T13:19:16;101030.88;;;12.71;94.11
51297;BME280;37380;45.186;9.792;2023-03-03T13:21:58;101041.38;;;12.71;94.10
51297;BME280;37380;45.186;9.792;2023-03-03T13:25:18;101081.00;;;13.08;92.30
51297;BME280;37380;45.186;9.792;2023-03-03T13:31:28;101076.22;;;12.66;93.74
51297;BME280;37380;45.186;9.792;2023-03-03T13:33:59;101082.59;;;12.75;94.12
51297;BME280;37380;45.186;9.792;2023-03-03T13:36:42;101074.16;;;12.85;94.97
51297;BME280;37380;45.186;9.792;2023-03-03T13:40:00;101029.91;;;12.67;93.34
51297;BME280;37380;45.186;9.792;2023-03-03T13:42:44;101021.50;;;12.77;94.14
51297;BME280;37380;45.186;9.792;2023-03-03T13:45:58;101068.44;;;13.25;91.00
51297;BME280;37380;45.186;9.792;2023-03-03T14:00:43;101057.31;;;13.34;88.55
51297;BME280;37380;45.186;9.792;2023-03-03T14:06:27;101020.50;;;12.74;88.98
51297;BME280;37380;45.186;9.792;2023-03-03T14:12:09;100988.06;;;12.70;89.34
51297;BME280;37380;45.186;9.792;2023-03-03T14:20:37;101025.19;;;12.84;90.93
51297;BME280;37380;45.186;9.792;2023-03-03T14:23:52;100976.34;;;12.59;85.23
51297;BME280;37380;45.186;9.792;2023-03-03T14:26:59;100984.69;;;12.74;84.18
51297;BME280;37380;45.186;9.792;2023-03-03T14:35:49;101000.72;;;12.83;87.15
51297;BME280;37380;45.186;9.792;2023-03-03T14:38:45;101043.97;;;12.98;86.53
51297;BME280;37380;45.186;9.792;2023-03-03T14:41:46;100976.63;;;12.68;87.34
51297;BME280;37380;45.186;9.792;2023-03-03T14:47:21;101007.78;;;12.86;88.72
51297;BME280;37380;45.186;9.792;2023-03-03T14:50:36;101036.19;;;13.01;88.93
51297;BME280;37380;45.186;9.792;2023-03-03T14:53:20;101034.78;;;13.12;88.31
51297;BME280;37380;45.186;9.792;2023-03-03T14:56:22;101043.56;;;13.14;85.90
51297;BME280;37380;45.186;9.792;2023-03-03T14:59:11;101054.56;;;13.01;87.08
51297;BME280;37380;45.186;9.792;2023-03-03T15:01:42;100884.50;;;12.26;86.91
51297;BME280;37380;45.186;9.792;2023-03-03T15:06:47;100973.91;;;12.65;88.21
51297;BME280;37380;45.186;9.792;2023-03-03T15:09:34;101038.03;;;13.03;91.10
51297;BME280;37380;45.186;9.792;2023-03-03T15:15:17;101030.38;;;13.11;88.33
51297;BME280;37380;45.186;9.792;2023-03-03T15:23:54;101004.06;;;12.79;89.31
51297;BME280;37380;45.186;9.792;2023-03-03T15:26:56;101027.03;;;12.86;90.31
51297;BME280;37380;45.186;9.792;2023-03-03T15:29:35;101030.47;;;12.85;90.38
51297;BME280;37380;45.186;9.792;2023-03-03T15:32:28;100964.44;;;12.41;90.96
51297;BME280;37380;45.186;9.792;2023-03-03T15:35:14;101020.84;;;12.84;91.88
51297;BME280;37380;45.186;9.792;2023-03-03T15:41:23;101012.50;;;12.69;92.21
51297;BME280;37380;45.186;9.792;2023-03-03T15:46:38;101021.78;;;12.86;94.78
51297;BME280;37380;45.186;9.792;2023-03-03T15:51:49;101023.44;;;12.84;95.95
51297;BME280;37380;45.186;9.792;2023-03-03T15:54:47;100984.41;;;12.36;95.96
51297;BME280;37380;45.186;9.792;2023-03-03T15:58:31;101026.41;;;12.66;95.79
51297;BME280;37380;45.186;9.792;2023-03-03T16:08:29;101011.31;;;12.59;96.56
51297;BME280;37380;45.186;9.792;2023-03-03T16:26:42;101035.25;;;12.16;100.00
51297;BME280;37380;45.186;9.792;2023-03-03T16:29:58;100993.44;;;11.68;100.00
51297;BME280;37380;45.186;9.792;2023-03-03T16:32:33;101027.16;;;11.84;100.00
51297;BME280;37380;45.186;9.792;2023-03-03T16:38:23;101011.09;;;11.49;100.00
51297;BME280;37380;45.186;9.792;2023-03-03T16:41:26;101040.97;;;11.80;100.00
51297;BME280;37380;45.186;9.792;2023-03-03T16:44:11;101049.59;;;11.77;100.00
51297;BME280;37380;45.186;9.792;2023-03-03T16:47:26;101056.22;;;11.90;100.00
51297;BME280;37380;45.186;9.792;2023-03-03T16:56:36;101059.41;;;11.59;100.00
51297;BME280;37380;45.186;9.792;2023-03-03T17:03:09;101067.53;;;11.43;100.00
51297;BME280;37380;45.186;9.792;2023-03-03T17:12:00;101082.75;;;11.29;100.00
51297;BME280;37380;45.186;9.792;2023-03-03T17:17:42;101088.63;;;11.01;100.00
51297;BME280;37380;45.186;9.792;2023-03-03T17:20:22;101095.00;;;10.85;100.00
51297;BME280;37380;45.186;9.792;2023-03-03T17:23:47;101096.03;;;10.68;100.00
51297;BME280;37380;45.186;9.792;2023-03-03T17:26:45;101106.03;;;10.57;100.00
51297;BME280;37380;45.186;9.792;2023-03-03T17:46:49;101126.56;;;9.88;100.00
51297;BME280;37380;45.186;9.792;2023-03-03T17:49:41;101124.47;;;10.19;100.00
51297;BME280;37380;45.186;9.792;2023-03-03T17:55:42;101146.50;;;10.46;100.00
51297;BME280;37380;45.186;9.792;2023-03-03T18:04:13;101145.09;;;10.33;100.00
51297;BME280;37380;45.186;9.792;2023-03-03T18:41:11;101180.66;;;8.80;100.00
51297;BME280;37380;45.186;9.792;2023-03-03T18:46:47;101111.81;;;8.41;100.00
51297;BME280;37380;45.186;9.792;2023-03-03T18:50:14;101173.66;;;8.61;100.00
51297;BME280;37380;45.186;9.792;2023-03-03T18:53:26;101170.69;;;8.55;100.00
51297;BME280;37380;45.186;9.792;2023-03-03T18:55:59;101169.28;;;8.44;100.00
51297;BME280;37380;45.186;9.792;2023-03-03T18:58:39;101171.06;;;8.45;100.00
51297;BME280;37380;45.186;9.792;2023-03-03T19:09:20;101131.13;;;7.77;100.00
51297;BME280;37380;45.186;9.792;2023-03-03T19:12:15;101181.25;;;7.91;100.00
51297;BME280;37380;45.186;9.792;2023-03-03T19:18:27;101156.72;;;7.69;100.00
51297;BME280;37380;45.186;9.792;2023-03-03T19:21:05;101182.81;;;7.87;100.00
51297;BME280;37380;45.186;9.792;2023-03-03T19:24:03;101049.81;;;6.83;100.00
51297;BME280;37380;45.186;9.792;2023-03-03T19:35:17;101198.94;;;7.80;100.00
51297;BME280;37380;45.186;9.792;2023-03-03T19:41:12;101146.19;;;7.19;100.00